sensor_id;sensor_type;location;lat;lon;timestamp;temperature;humidity
19192;DHT22;9728;48.194;16.346;2023-09-19T19:34:34;28.80;58.10
19192;DHT22;9728;48.194;16.346;2023-09-19T19:39:40;28.70;58.00
19192;DHT22;9728;48.194;16.346;2023-09-19T19:44:45;28.60;58.20
19192;DHT22;9728;48.194;16.346;2023-09-19T19:56:41;28.50;58.70
19192;DHT22;9728;48.194;16.346;2023-09-19T20:01:47;28.40;58.50
19192;DHT22;9728;48.194;16.346;2023-09-19T20:12:37;28.30;58.90
19192;DHT22;9728;48.194;16.346;2023-09-19T20:17:42;28.20;59.10
19192;DHT22;9728;48.194;16.346;2023-09-19T20:22:47;28.10;59.00
19192;DHT22;9728;48.194;16.346;2023-09-19T20:27:53;28.00;58.90
19192;DHT22;9728;48.194;16.346;2023-09-19T20:33:01;28.00;59.80
19192;DHT22;9728;48.194;16.346;2023-09-19T20:38:09;28.00;59.30
19192;DHT22;9728;48.194;16.346;2023-09-19T20:43:15;27.90;59.30
19192;DHT22;9728;48.194;16.346;2023-09-19T20:48:19;27.80;60.60
19192;DHT22;9728;48.194;16.346;2023-09-19T20:53:23;27.90;61.40
19192;DHT22;9728;48.194;16.346;2023-09-19T20:58:29;27.90;61.80
19192;DHT22;9728;48.194;16.346;2023-09-19T21:03:33;28.00;62.20
19192;DHT22;9728;48.194;16.346;2023-09-19T21:08:37;28.10;62.10
19192;DHT22;9728;48.194;16.346;2023-09-19T21:13:44;28.20;62.10
19192;DHT22;9728;48.194;16.346;2023-09-19T21:18:48;28.30;62.10
19192;DHT22;9728;48.194;16.346;2023-09-19T21:23:52;28.40;61.90
19192;DHT22;9728;48.194;16.346;2023-09-19T21:28:58;28.50;61.70
19192;DHT22;9728;48.194;16.346;2023-09-19T21:34:02;28.60;61.60
19192;DHT22;9728;48.194;16.346;2023-09-19T21:39:07;28.70;61.30
19192;DHT22;9728;48.194;16.346;2023-09-19T21:44:12;28.80;61.10
19192;DHT22;9728;48.194;16.346;2023-09-19T21:49:16;28.80;61.00
19192;DHT22;9728;48.194;16.346;2023-09-19T21:54:19;28.90;60.90
19192;DHT22;9728;48.194;16.346;2023-09-19T21:59:24;28.90;61.60
19192;DHT22;9728;48.194;16.346;2023-09-19T22:04:28;29.00;60.70
19192;DHT22;9728;48.194;16.346;2023-09-19T22:09:32;29.00;60.80
19192;DHT22;9728;48.194;16.346;2023-09-19T22:14:37;29.10;60.90
19192;DHT22;9728;48.194;16.346;2023-09-19T22:19:42;29.10;60.80
19192;DHT22;9728;48.194;16.346;2023-09-19T22:24:45;29.20;60.60
19192;DHT22;9728;48.194;16.346;2023-09-19T22:29:52;29.20;60.50
19192;DHT22;9728;48.194;16.346;2023-09-19T22:34:56;29.20;60.40
19192;DHT22;9728;48.194;16.346;2023-09-19T22:40:00;29.20;60.40
19192;DHT22;9728;48.194;16.346;2023-09-19T22:45:07;29.20;60.40
19192;DHT22;9728;48.194;16.346;2023-09-19T22:50:14;29.30;60.30
19192;DHT22;9728;48.194;16.346;2023-09-19T22:55:18;29.20;60.10
19192;DHT22;9728;48.194;16.346;2023-09-19T23:00:28;29.30;60.10
19192;DHT22;9728;48.194;16.346;2023-09-19T23:05:35;29.20;60.00
19192;DHT22;9728;48.194;16.346;2023-09-19T23:10:44;29.20;59.80
19192;DHT22;9728;48.194;16.346;2023-09-19T23:15:51;29.20;60.00
19192;DHT22;9728;48.194;16.346;2023-09-19T23:20:58;29.20;60.00
19192;DHT22;9728;48.194;16.346;2023-09-19T23:26:11;29.10;59.90
19192;DHT22;9728;48.194;16.346;2023-09-19T23:31:17;29.10;59.90
19192;DHT22;9728;48.194;16.346;2023-09-19T23:36:21;29.20;59.90
19192;DHT22;9728;48.194;16.346;2023-09-19T23:41:25;29.10;59.90
19192;DHT22;9728;48.194;16.346;2023-09-19T23:46:31;29.10;59.90
19192;DHT22;9728;48.194;16.346;2023-09-19T23:51:35;29.10;59.80
19192;DHT22;9728;48.194;16.346;2023-09-19T23:56:39;29.10;59.80
